Time;durP1;ratioP1;P1;durP2;ratioP2;P2;SDS_P1;SDS_P2;PMS_P1;PMS_P2;Temp;Humidity;BMP_temperature;BMP_pressure;BME280_temperature;BME280_humidity;BME280_pressure;Samples;Min_cycle;Max_cycle;Signal;HPM_P1;HPM_P2
2023/09/16 04:30:06;;;;;;;0.00;0.00;;;20.90;64.90;;;;;;6021987;23;20029;31
2023/09/16 04:32:31;;;;;;;0.00;0.00;;;20.90;65.20;;;;;;4887862;29;20574;-83
2023/09/16 04:34:58;;;;;;;0.00;0.00;;;20.90;65.30;;;;;;4901851;29;20024;-84
2023/09/16 04:37:24;;;;;;;0.00;0.00;;;20.90;65.70;;;;;;4899786;29;20037;-83
2023/09/16 04:39:49;;;;;;;0.00;0.00;;;20.80;65.60;;;;;;4916257;29;20033;-83
2023/09/16 04:42:16;;;;;;;0.00;0.00;;;20.80;66.50;;;;;;4901977;29;20070;-83
2023/09/16 04:44:41;;;;;;;0.00;0.00;;;20.80;66.30;;;;;;4900817;29;20053;-84
2023/09/16 04:47:13;;;;;;;0.00;0.00;;;20.80;66.20;;;;;;4901758;29;20454;-83
2023/09/16 04:49:38;;;;;;;0.00;0.00;;;20.80;66.40;;;;;;4901879;29;20457;-83
2023/09/16 04:52:04;;;;;;;0.00;0.00;;;20.80;66.70;;;;;;4900536;29;20040;-83
2023/09/16 04:54:35;;;;;;;0.00;0.00;;;20.80;66.80;;;;;;4901929;29;20039;-84
2023/09/16 04:57:02;;;;;;;0.00;0.00;;;20.80;66.70;;;;;;4901967;29;20033;-84
2023/09/16 04:59:31;;;;;;;0.00;0.00;;;20.80;66.70;;;;;;4901214;29;20457;-84
2023/09/16 05:01:56;;;;;;;0.00;0.00;;;20.80;66.80;;;;;;4899911;29;20036;-83
2023/09/16 05:04:22;;;;;;;0.00;0.00;;;20.80;66.70;;;;;;4888550;29;20020;-84
2023/09/16 05:06:47;;;;;;;0.00;0.00;;;20.80;66.70;;;;;;4891872;29;20079;-83
2023/09/16 05:09:13;;;;;;;0.00;0.00;;;20.70;66.50;;;;;;4901581;29;20040;-84
2023/09/16 05:11:38;;;;;;;0.00;0.00;;;20.80;67.30;;;;;;4900233;29;20060;-84
2023/09/16 05:14:04;;;;;;;0.00;0.00;;;20.80;67.50;;;;;;4901653;29;20064;-84
2023/09/16 05:16:30;;;;;;;0.00;0.00;;;20.80;66.60;;;;;;4893357;29;20524;-84
2023/09/16 05:18:55;;;;;;;0.00;0.00;;;20.70;66.80;;;;;;4916018;29;20036;-84
2023/09/16 05:21:21;;;;;;;0.00;0.00;;;20.70;66.70;;;;;;4884664;29;20120;-84
2023/09/16 05:23:47;;;;;;;0.00;0.00;;;20.70;66.90;;;;;;4884273;29;20446;-84
2023/09/16 05:26:14;;;;;;;0.00;0.00;;;20.70;66.60;;;;;;4884709;29;20058;-84
2023/09/16 05:28:39;;;;;;;0.00;0.00;;;20.70;66.50;;;;;;4900512;29;20040;-84
2023/09/16 05:31:05;;;;;;;0.00;0.00;;;20.70;66.60;;;;;;4884455;29;20052;-84
2023/09/16 05:33:31;;;;;;;0.00;0.00;;;20.80;66.90;;;;;;4901308;29;20033;-84
2023/09/16 05:35:56;;;;;;;0.00;0.00;;;20.70;67.30;;;;;;4900972;29;20161;-84
2023/09/16 05:38:22;;;;;;;0.00;0.00;;;20.70;67.40;;;;;;4901735;29;20485;-85
2023/09/16 05:40:47;;;;;;;0.00;0.00;;;20.60;67.30;;;;;;4901242;29;20089;-81
2023/09/16 05:43:13;;;;;;;0.00;0.00;;;20.70;66.70;;;;;;4883726;29;20113;-81
2023/09/16 05:45:39;;;;;;;0.00;0.00;;;20.70;66.70;;;;;;4880248;29;20068;-81
2023/09/16 05:48:05;;;;;;;0.00;0.00;;;20.60;67.00;;;;;;4880895;29;20064;-82
2023/09/16 05:50:31;;;;;;;0.10;0.10;;;20.60;67.00;;;;;;4882225;29;20080;-83
2023/09/16 05:52:56;;;;;;;0.05;0.00;;;20.60;67.50;;;;;;4897430;29;20560;-81
2023/09/16 05:55:22;;;;;;;0.00;0.00;;;20.60;67.50;;;;;;4886286;29;20053;-79
2023/09/16 05:57:48;;;;;;;0.00;0.00;;;20.60;67.10;;;;;;4899619;29;20505;-79
2023/09/16 06:00:14;;;;;;;0.08;0.00;;;20.60;67.20;;;;;;4900519;29;20032;-83
2023/09/16 06:02:40;;;;;;;0.00;0.00;;;20.60;67.40;;;;;;4883178;29;20036;-84
2023/09/16 06:05:07;;;;;;;0.00;0.00;;;20.70;67.30;;;;;;4900241;29;20036;-85
2023/09/16 06:07:35;;;;;;;0.00;0.00;;;20.70;67.50;;;;;;4900686;29;20024;-78
2023/09/16 06:10:01;;;;;;;0.00;0.00;;;20.70;67.40;;;;;;4900191;29;20048;-82
2023/09/16 06:12:26;;;;;;;0.00;0.00;;;20.70;67.40;;;;;;4899151;29;20392;-83
2023/09/16 06:14:52;;;;;;;0.00;0.00;;;20.70;67.30;;;;;;4898448;29;20108;-80
2023/09/16 06:17:19;;;;;;;0.00;0.00;;;20.70;67.10;;;;;;4899416;29;20445;-80
2023/09/16 06:19:45;;;;;;;0.00;0.00;;;20.70;66.60;;;;;;4881048;29;20496;-81
2023/09/16 06:22:13;;;;;;;0.00;0.00;;;20.70;66.70;;;;;;4898706;29;20120;-81
2023/09/16 06:24:39;;;;;;;0.00;0.00;;;20.60;66.60;;;;;;4882837;29;20028;-81
2023/09/16 06:27:05;;;;;;;0.00;0.00;;;20.60;66.80;;;;;;4906600;29;20496;-81
2023/09/16 06:29:30;;;;;;;0.00;0.00;;;20.70;66.70;;;;;;4905368;29;20119;-81
2023/09/16 06:31:56;;;;;;;0.00;0.00;;;20.70;66.70;;;;;;4899094;29;20037;-80
2023/09/16 06:34:22;;;;;;;0.00;0.00;;;20.60;66.80;;;;;;4898818;29;20073;-84
2023/09/16 06:36:47;;;;;;;0.00;0.00;;;20.50;67.90;;;;;;4914446;29;20131;-81
2023/09/16 06:39:13;;;;;;;0.00;0.00;;;20.50;68.00;;;;;;4899568;29;20048;-81
2023/09/16 06:41:39;;;;;;;0.00;0.00;;;20.50;67.70;;;;;;4882812;29;20092;-80
2023/09/16 06:44:04;;;;;;;0.00;0.00;;;20.60;67.50;;;;;;4882909;29;20040;-81
2023/09/16 06:46:30;;;;;;;0.00;0.00;;;20.60;67.10;;;;;;4899129;29;20037;-80
2023/09/16 06:48:55;;;;;;;0.00;0.00;;;20.70;67.10;;;;;;4900330;29;20489;-80
2023/09/16 06:51:21;;;;;;;0.00;0.00;;;20.60;67.30;;;;;;4900346;29;20025;-81
2023/09/16 06:53:47;;;;;;;0.00;0.00;;;20.70;67.20;;;;;;4898691;29;20039;-83
2023/09/16 06:56:12;;;;;;;0.00;0.00;;;20.60;67.00;;;;;;4900072;29;20029;-80
2023/09/16 06:58:38;;;;;;;0.00;0.00;;;20.60;68.00;;;;;;4900627;29;20158;-81
2023/09/16 07:01:10;;;;;;;0.00;0.00;;;20.60;68.20;;;;;;4913344;29;20047;-82
2023/09/16 07:03:36;;;;;;;0.00;0.00;;;20.60;67.70;;;;;;4899468;29;20039;-82
2023/09/16 07:06:01;;;;;;;0.00;0.00;;;20.60;67.50;;;;;;4886738;29;20033;-83
2023/09/16 07:08:27;;;;;;;0.00;0.00;;;20.70;67.70;;;;;;4906897;29;20032;-80
2023/09/16 07:10:54;;;;;;;0.00;0.00;;;20.60;67.90;;;;;;4914441;29;20025;-78
2023/09/16 07:13:19;;;;;;;0.00;0.00;;;20.60;68.00;;;;;;4898765;29;20116;-80
2023/09/16 07:15:52;;;;;;;0.00;0.00;;;20.50;68.20;;;;;;4898222;29;20060;-81
2023/09/16 07:18:18;;;;;;;0.00;0.00;;;20.50;69.40;;;;;;4898713;29;20103;-80
2023/09/16 07:20:44;;;;;;;0.00;0.00;;;20.60;69.00;;;;;;4908497;29;20071;-77
2023/09/16 07:23:09;;;;;;;0.00;0.00;;;20.60;68.80;;;;;;4881861;29;20044;-86
2023/09/16 07:25:35;;;;;;;0.00;0.00;;;20.70;68.50;;;;;;4898161;29;20032;-80
2023/09/16 07:28:02;;;;;;;0.00;0.00;;;20.80;68.40;;;;;;4899322;29;20101;-79
2023/09/16 07:30:28;;;;;;;0.00;0.00;;;20.80;68.60;;;;;;4888506;29;20040;-79
2023/09/16 07:32:54;;;;;;;0.00;0.00;;;20.80;67.90;;;;;;4893580;29;20552;-81
2023/09/16 07:35:20;;;;;;;0.00;0.00;;;20.80;67.60;;;;;;4898788;29;20033;-79
2023/09/16 07:37:45;;;;;;;0.20;0.00;;;20.90;67.90;;;;;;4913124;29;20043;-78
2023/09/16 07:40:11;;;;;;;0.00;0.00;;;21.00;67.40;;;;;;4899214;29;20035;-80
2023/09/16 07:42:37;;;;;;;0.00;0.00;;;21.00;67.70;;;;;;4897929;29;20032;-79
2023/09/16 07:45:03;;;;;;;0.00;0.00;;;21.00;67.10;;;;;;4906041;29;20040;-79
2023/09/16 07:47:29;;;;;;;0.00;0.00;;;21.10;66.60;;;;;;4905092;29;20028;-79
2023/09/16 07:49:55;;;;;;;0.00;0.00;;;21.10;66.30;;;;;;4902122;29;20504;-79
2023/09/16 07:52:20;;;;;;;0.00;0.00;;;21.10;66.40;;;;;;4901257;29;20460;-79
2023/09/16 07:54:46;;;;;;;0.00;0.00;;;21.10;66.50;;;;;;4885489;29;20037;-79
2023/09/16 07:57:13;;;;;;;0.00;0.00;;;21.10;66.20;;;;;;4885499;29;20040;-79
2023/09/16 07:59:38;;;;;;;0.00;0.00;;;21.20;66.40;;;;;;4901495;29;20032;-79
2023/09/16 08:02:04;;;;;;;0.00;0.00;;;21.20;66.40;;;;;;4901951;29;20044;-79
2023/09/16 08:04:31;;;;;;;0.00;0.00;;;21.20;66.60;;;;;;4900900;29;20385;-85
2023/09/16 08:06:58;;;;;;;0.00;0.00;;;21.20;66.00;;;;;;4916250;29;20028;-82
2023/09/16 08:09:24;;;;;;;0.00;0.00;;;21.10;65.80;;;;;;4921154;29;20034;-77
2023/09/16 08:11:50;;;;;;;0.00;0.00;;;21.10;65.70;;;;;;4921710;29;20075;-80
2023/09/16 08:14:16;;;;;;;0.00;0.00;;;21.00;66.20;;;;;;4902328;29;20037;-84
2023/09/16 08:16:42;;;;;;;0.00;0.00;;;21.10;66.10;;;;;;4915769;29;20417;-83
2023/09/16 08:19:07;;;;;;;0.00;0.00;;;21.10;66.80;;;;;;4884930;29;20544;-80
2023/09/16 08:21:33;;;;;;;0.00;0.00;;;21.10;66.70;;;;;;4901025;29;20477;-77
2023/09/16 08:23:58;;;;;;;0.00;0.00;;;21.20;67.40;;;;;;4902004;29;20036;-85
2023/09/16 08:26:24;;;;;;;0.03;0.03;;;21.20;67.70;;;;;;4900801;29;20028;-79
2023/09/16 08:28:50;;;;;;;0.00;0.00;;;21.30;68.40;;;;;;4880855;29;20037;-76
2023/09/16 08:31:15;;;;;;;0.00;0.00;;;21.30;69.30;;;;;;4900336;29;20063;-79
2023/09/16 08:33:41;;;;;;;0.00;0.00;;;21.30;69.50;;;;;;4900174;29;20036;-79
2023/09/16 08:36:06;;;;;;;0.00;0.00;;;21.40;69.80;;;;;;4900521;29;20119;-80
2023/09/16 08:38:32;;;;;;;0.00;0.00;;;21.50;69.80;;;;;;4902320;29;20060;-79
2023/09/16 08:41:10;;;;;;;0.00;0.00;;;21.70;69.60;;;;;;4900849;29;20088;-80
2023/09/16 08:43:41;;;;;;;0.00;0.00;;;21.80;70.30;;;;;;4905717;29;20088;-79
2023/09/16 08:46:10;;;;;;;0.00;0.00;;;21.80;70.30;;;;;;4912565;29;20041;-78
2023/09/16 08:48:44;;;;;;;0.00;0.00;;;22.10;70.90;;;;;;4898553;29;20025;-85
2023/09/16 08:51:14;;;;;;;0.00;0.00;;;22.40;70.90;;;;;;4900530;29;20037;-78
2023/09/16 08:53:43;;;;;;;0.00;0.00;;;22.70;69.50;;;;;;4900625;29;20109;-79
2023/09/16 08:56:10;;;;;;;0.08;0.08;;;22.80;68.00;;;;;;4890431;29;20052;-82
2023/09/16 08:58:36;;;;;;;0.00;0.00;;;22.90;68.80;;;;;;4890866;29;20053;-86
2023/09/16 09:01:03;;;;;;;0.00;0.00;;;23.00;68.60;;;;;;4898807;29;20028;-78
2023/09/16 09:03:32;;;;;;;0.00;0.00;;;23.00;68.80;;;;;;4900879;29;20041;-78
2023/09/16 09:05:58;;;;;;;0.00;0.00;;;23.00;68.70;;;;;;4899044;29;20509;-78
2023/09/16 09:08:24;;;;;;;0.00;0.00;;;23.00;69.30;;;;;;4884001;29;20076;-78
2023/09/16 09:10:50;;;;;;;0.00;0.00;;;23.00;70.10;;;;;;4903919;29;20028;-78
2023/09/16 09:13:16;;;;;;;0.00;0.00;;;23.00;69.10;;;;;;4891524;29;20036;-78
2023/09/16 09:15:47;;;;;;;0.00;0.00;;;22.90;70.00;;;;;;4902090;29;20043;-78
2023/09/16 09:18:17;;;;;;;0.00;0.00;;;22.80;70.60;;;;;;4896939;29;20036;-78
2023/09/16 09:20:42;;;;;;;0.00;0.00;;;22.70;71.80;;;;;;4910135;29;20492;-78
2023/09/16 09:23:08;;;;;;;0.00;0.00;;;22.60;71.70;;;;;;4900309;29;20079;-78
2023/09/16 09:25:36;;;;;;;0.00;0.00;;;22.40;71.70;;;;;;4899111;29;20512;-79
2023/09/16 09:28:03;;;;;;;0.00;0.00;;;22.10;71.30;;;;;;4898391;29;20059;-79
2023/09/16 09:30:31;;;;;;;0.00;0.00;;;21.90;71.70;;;;;;4898239;29;20044;-78
2023/09/16 09:32:58;;;;;;;0.00;0.00;;;21.70;72.00;;;;;;4897632;29;20033;-78
2023/09/16 09:35:26;;;;;;;0.00;0.00;;;21.60;72.50;;;;;;4898590;29;20064;-78
2023/09/16 09:37:51;;;;;;;0.00;0.00;;;21.60;72.60;;;;;;4899437;29;20488;-78
2023/09/16 09:40:18;;;;;;;0.00;0.00;;;21.50;72.30;;;;;;4899975;29;20037;-78
2023/09/16 09:42:51;;;;;;;0.00;0.00;;;21.50;72.60;;;;;;4899072;29;20585;-78
2023/09/16 09:45:19;;;;;;;0.00;0.00;;;21.50;75.30;;;;;;4896704;29;20493;-78
2023/09/16 09:47:46;;;;;;;0.00;0.00;;;21.40;75.60;;;;;;4897314;29;20063;-78
2023/09/16 09:50:14;;;;;;;0.00;0.00;;;21.40;76.20;;;;;;4898281;29;20048;-79
2023/09/16 09:52:48;;;;;;;0.10;0.00;;;21.40;76.20;;;;;;4882664;29;20032;-78
2023/09/16 09:55:18;;;;;;;0.00;0.00;;;21.40;76.80;;;;;;4916113;23;20048;-78
2023/09/16 09:57:46;;;;;;;0.00;0.00;;;21.40;77.10;;;;;;4931340;29;20035;-78
2023/09/16 10:00:17;;;;;;;0.00;0.00;;;21.40;77.00;;;;;;4918886;29;20034;-78
2023/09/16 10:02:43;;;;;;;0.00;0.00;;;21.30;77.50;;;;;;4937667;29;20036;-78
2023/09/16 10:05:17;;;;;;;0.00;0.00;;;21.40;77.40;;;;;;4935763;29;20558;-78
2023/09/16 10:07:43;;;;;;;0.00;0.00;;;21.50;78.20;;;;;;4921392;29;20090;-78
2023/09/16 10:10:20;;;;;;;0.00;0.00;;;21.70;77.60;;;;;;4937516;29;20051;-79
2023/09/16 10:12:47;;;;;;;0.00;0.00;;;21.70;78.10;;;;;;4917266;29;20509;-81
2023/09/16 10:15:13;;;;;;;0.00;0.00;;;21.80;77.80;;;;;;4935644;29;20502;-78
2023/09/16 10:17:46;;;;;;;0.00;0.00;;;22.00;77.70;;;;;;4938077;29;20031;-78
2023/09/16 10:20:13;;;;;;;;;;;22.00;77.50;;;;;;4939605;29;20622;-78
2023/09/16 10:22:39;;;;;;;0.00;0.00;;;22.20;77.10;;;;;;4933983;29;19925;-77
2023/09/16 10:25:06;;;;;;;0.00;0.00;;;22.30;77.30;;;;;;4932197;29;20028;-78
2023/09/16 10:27:44;;;;;;;0.00;0.00;;;22.40;76.70;;;;;;4931523;29;20031;-78
2023/09/16 10:30:13;;;;;;;0.00;0.00;;;22.60;76.90;;;;;;4917032;29;20031;-78
2023/09/16 10:32:39;;;;;;;0.00;0.00;;;22.80;76.20;;;;;;4935121;29;20035;-78
2023/09/16 10:35:06;;;;;;;0.10;0.10;;;22.80;76.00;;;;;;4937244;29;20032;-78
2023/09/16 10:37:33;;;;;;;0.00;0.00;;;23.00;75.50;;;;;;4915600;29;20040;-78
2023/09/16 10:39:59;;;;;;;0.00;0.00;;;23.10;75.60;;;;;;4941372;29;20684;-79
2023/09/16 10:42:26;;;;;;;0.03;0.03;;;23.20;75.90;;;;;;4939320;29;20106;-80
2023/09/16 10:44:55;;;;;;;0.10;0.10;;;23.30;75.40;;;;;;4939710;29;20032;-81
2023/09/16 10:47:22;;;;;;;0.08;0.08;;;23.30;75.50;;;;;;4951058;28;20052;-80
2023/09/16 10:49:48;;;;;;;0.00;0.00;;;23.20;75.20;;;;;;4930758;29;20023;-82
2023/09/16 10:52:20;;;;;;;0.00;0.00;;;23.20;75.80;;;;;;4907685;29;20115;-80
2023/09/16 10:54:55;;;;;;;0.00;0.00;;;23.10;76.30;;;;;;4941796;28;20058;-80
2023/09/16 10:57:26;;;;;;;0.00;0.00;;;23.10;76.20;;;;;;4931749;29;20461;-80
2023/09/16 10:59:52;;;;;;;0.10;0.10;;;23.00;75.70;;;;;;4941713;29;20035;-82
2023/09/16 11:02:32;;;;;;;0.10;0.10;;;23.10;76.30;;;;;;4943357;29;20036;-82
2023/09/16 11:04:59;;;;;;;0.00;0.00;;;23.10;76.60;;;;;;4936352;29;20051;-83
2023/09/16 11:07:25;;;;;;;0.00;0.00;;;23.10;76.20;;;;;;4937224;29;20024;-86
2023/09/16 11:09:53;;;;;;;0.00;0.00;;;23.10;76.00;;;;;;4904822;29;20024;-86
2023/09/16 11:12:20;;;;;;;0.05;0.00;;;23.10;75.70;;;;;;4935579;29;20039;-83
2023/09/16 11:14:46;;;;;;;0.00;0.00;;;23.10;76.10;;;;;;4938799;29;20034;-83
2023/09/16 11:17:14;;;;;;;0.00;0.00;;;23.10;76.10;;;;;;4922866;29;20027;-83
2023/09/16 11:19:41;;;;;;;0.00;0.00;;;23.10;75.80;;;;;;4941343;29;20036;-82
2023/09/16 11:22:08;;;;;;;0.00;0.00;;;23.20;75.10;;;;;;4941250;29;20066;-84
2023/09/16 11:24:35;;;;;;;0.20;0.10;;;23.10;75.70;;;;;;4941024;29;20127;-82
2023/09/16 11:27:01;;;;;;;0.00;0.00;;;23.10;75.40;;;;;;4942993;29;20060;-84
2023/09/16 11:29:31;;;;;;;0.00;0.00;;;23.00;76.20;;;;;;4940651;29;20486;-83
2023/09/16 11:31:57;;;;;;;0.00;0.00;;;23.00;76.70;;;;;;4950672;29;20087;-89
2023/09/16 11:34:25;;;;;;;0.00;0.00;;;23.00;76.20;;;;;;4923906;29;20084;-85
2023/09/16 11:36:54;;;;;;;0.00;0.00;;;23.00;75.90;;;;;;4942548;29;20015;-80
2023/09/16 11:39:43;;;;;;;0.00;0.00;;;23.00;76.00;;;;;;4944684;29;20027;-81
2023/09/16 11:42:09;;;;;;;0.00;0.00;;;22.90;75.70;;;;;;4944835;29;20046;-81
2023/09/16 11:44:36;;;;;;;0.00;0.00;;;22.90;76.30;;;;;;4942564;29;20019;-81
2023/09/16 11:47:03;;;;;;;0.00;0.00;;;22.90;76.50;;;;;;4926141;29;20122;-79
2023/09/16 11:49:35;;;;;;;0.00;0.00;;;23.00;76.30;;;;;;4922112;29;20123;-80
2023/09/16 11:52:04;;;;;;;0.00;0.00;;;22.90;76.00;;;;;;4933455;29;20078;-79
2023/09/16 11:54:29;;;;;;;0.00;0.00;;;22.90;75.70;;;;;;4938468;29;20050;-79
2023/09/16 11:56:55;;;;;;;0.30;0.00;;;23.00;74.90;;;;;;4936380;29;20024;-79
2023/09/16 11:59:21;;;;;;;0.00;0.00;;;23.10;75.30;;;;;;4922308;29;20035;-79
2023/09/16 12:01:47;;;;;;;0.00;0.00;;;23.00;76.10;;;;;;4929854;29;20109;-79
2023/09/16 12:04:15;;;;;;;0.00;0.00;;;23.10;76.20;;;;;;4935431;29;20031;-79
2023/09/16 12:06:41;;;;;;;0.00;0.00;;;23.10;76.30;;;;;;4933661;29;20032;-79
2023/09/16 12:09:14;;;;;;;0.00;0.00;;;23.10;75.90;;;;;;4928030;29;20016;-79
2023/09/16 12:11:40;;;;;;;0.00;0.00;;;23.20;75.80;;;;;;4924394;29;20472;-79
2023/09/16 12:14:07;;;;;;;0.00;0.00;;;23.20;76.30;;;;;;4928591;29;20040;-79
2023/09/16 12:16:33;;;;;;;0.00;0.00;;;23.20;76.50;;;;;;4930563;29;20032;-79
2023/09/16 12:18:59;;;;;;;0.00;0.00;;;23.30;76.00;;;;;;4922262;29;20039;-79
2023/09/16 12:21:25;;;;;;;0.00;0.00;;;23.30;74.30;;;;;;4944492;29;20078;-80
2023/09/16 12:23:51;;;;;;;0.10;0.10;;;23.30;75.40;;;;;;4933720;29;20035;-79
2023/09/16 12:26:18;;;;;;;0.00;0.00;;;23.40;76.00;;;;;;4929705;29;20299;-79
2023/09/16 12:28:44;;;;;;;0.00;0.00;;;23.40;76.00;;;;;;4932112;29;20023;-80
2023/09/16 12:31:11;;;;;;;0.00;0.00;;;23.40;76.20;;;;;;4939289;29;20036;-79
2023/09/16 12:33:48;;;;;;;0.00;0.00;;;23.40;76.40;;;;;;4936734;29;20420;-79
2023/09/16 12:36:30;;;;;;;0.00;0.00;;;23.50;75.80;;;;;;4917312;29;20027;-82
2023/09/16 12:38:59;;;;;;;0.00;0.00;;;23.50;75.30;;;;;;4930451;29;20406;-80
2023/09/16 12:41:26;;;;;;;0.00;0.00;;;23.70;75.70;;;;;;4923638;29;20032;-80
2023/09/16 12:43:53;;;;;;;0.00;0.00;;;23.80;75.80;;;;;;4928063;29;20040;-92
2023/09/16 12:46:20;;;;;;;0.00;0.00;;;23.80;75.70;;;;;;4935086;29;20063;-78
2023/09/16 12:48:48;;;;;;;0.00;0.00;;;23.90;75.00;;;;;;4917962;29;20502;-78
2023/09/16 12:51:15;;;;;;;0.03;0.00;;;23.90;75.40;;;;;;4938501;29;20059;-78
2023/09/16 12:53:41;;;;;;;0.00;0.00;;;23.90;74.90;;;;;;4934244;29;20028;-78
2023/09/16 12:56:07;;;;;;;0.00;0.00;;;23.90;74.80;;;;;;4937502;29;20048;-77
2023/09/16 12:58:41;;;;;;;0.00;0.00;;;23.90;74.20;;;;;;4937395;29;20047;-77
2023/09/16 13:01:07;;;;;;;0.00;0.00;;;23.90;73.80;;;;;;4937556;29;20050;-79
2023/09/16 13:03:38;;;;;;;0.00;0.00;;;23.80;73.90;;;;;;4938746;29;20037;-79
2023/09/16 13:06:04;;;;;;;0.00;0.00;;;23.80;74.10;;;;;;4933022;29;20031;-79
2023/09/16 13:08:30;;;;;;;0.00;0.00;;;23.80;73.50;;;;;;4945625;29;20038;-78
2023/09/16 13:10:56;;;;;;;0.00;0.00;;;23.80;73.90;;;;;;4948621;29;20015;-78
2023/09/16 13:13:25;;;;;;;0.00;0.00;;;23.80;75.10;;;;;;4945754;29;20027;-78
2023/09/16 13:15:51;;;;;;;0.00;0.00;;;23.80;75.10;;;;;;4946939;29;20039;-78
2023/09/16 13:18:17;;;;;;;0.00;0.00;;;23.80;74.10;;;;;;4943931;29;20418;-78
2023/09/16 13:20:43;;;;;;;0.00;0.00;;;23.80;74.50;;;;;;4946480;29;20034;-78
2023/09/16 13:23:24;;;;;;;0.00;0.00;;;23.80;74.20;;;;;;4944790;29;20035;-78
2023/09/16 13:25:51;;;;;;;0.00;0.00;;;23.80;74.50;;;;;;4943356;29;20050;-78
2023/09/16 13:28:18;;;;;;;0.00;0.00;;;23.80;73.60;;;;;;4936654;29;20039;-78
2023/09/16 13:30:48;;;;;;;0.00;0.00;;;23.80;74.50;;;;;;4935467;29;20510;-78
2023/09/16 13:33:14;;;;;;;0.10;0.10;;;23.80;73.80;;;;;;4938327;29;20039;-77
2023/09/16 13:35:42;;;;;;;0.00;0.00;;;23.90;74.10;;;;;;4937113;29;20027;-78
2023/09/16 13:38:09;;;;;;;0.00;0.00;;;24.00;73.70;;;;;;4920235;29;20036;-78
2023/09/16 13:40:35;;;;;;;0.00;0.00;;;24.20;73.80;;;;;;4935806;29;20050;-78
2023/09/16 13:43:01;;;;;;;0.00;0.00;;;24.30;73.60;;;;;;4938084;29;20036;-78
2023/09/16 13:45:28;;;;;;;0.00;0.00;;;24.30;73.90;;;;;;4943630;29;20062;-78
2023/09/16 13:48:23;;;;;;;0.00;0.00;;;24.30;73.60;;;;;;4929372;29;20055;-78
2023/09/16 13:50:49;;;;;;;0.00;0.00;;;24.30;73.50;;;;;;4919750;29;20106;-78
2023/09/16 13:53:17;;;;;;;0.00;0.00;;;24.30;73.00;;;;;;4931326;29;20031;-78
2023/09/16 13:55:53;;;;;;;0.00;0.00;;;24.40;73.20;;;;;;4942836;29;20062;-78
2023/09/16 13:58:19;;;;;;;0.00;0.00;;;24.30;73.30;;;;;;4940169;29;20122;-78
2023/09/16 14:00:45;;;;;;;0.00;0.00;;;24.30;72.40;;;;;;4947179;29;20023;-78
2023/09/16 14:03:11;;;;;;;0.00;0.00;;;24.40;72.70;;;;;;4929770;29;20035;-78
2023/09/16 14:05:37;;;;;;;0.00;0.00;;;24.30;73.10;;;;;;4946324;29;20015;-78
2023/09/16 14:08:03;;;;;;;0.00;0.00;;;24.40;72.90;;;;;;4945820;29;20038;-78
2023/09/16 14:10:30;;;;;;;0.00;0.00;;;24.40;72.70;;;;;;4929765;29;20026;-80
2023/09/16 14:12:58;;;;;;;0.03;0.03;;;24.30;73.10;;;;;;4935465;29;20469;-80
2023/09/16 14:15:25;;;;;;;0.00;0.00;;;24.30;73.10;;;;;;4937909;29;20107;-84
2023/09/16 14:17:51;;;;;;;0.00;0.00;;;24.30;73.20;;;;;;4932773;29;20498;-77
2023/09/16 14:20:17;;;;;;;0.00;0.00;;;24.20;73.80;;;;;;4930779;29;20028;-76
2023/09/16 14:22:43;;;;;;;0.00;0.00;;;24.00;73.60;;;;;;4936269;29;20118;-79
2023/09/16 14:25:11;;;;;;;0.00;0.00;;;23.90;73.50;;;;;;4937533;29;20024;-80
2023/09/16 14:27:39;;;;;;;0.00;0.00;;;23.80;73.60;;;;;;4935386;29;20028;-82
2023/09/16 14:30:05;;;;;;;0.00;0.00;;;23.80;74.00;;;;;;4913360;29;20032;-78
2023/09/16 14:32:31;;;;;;;0.08;0.00;;;23.70;74.30;;;;;;4933401;29;20035;-80
2023/09/16 14:34:57;;;;;;;0.00;0.00;;;23.80;74.20;;;;;;4925502;29;20526;-78
2023/09/16 14:37:23;;;;;;;0.00;0.00;;;23.80;75.00;;;;;;4925354;29;20038;-80
2023/09/16 14:39:49;;;;;;;0.00;0.00;;;23.70;75.00;;;;;;4933599;29;20075;-80
2023/09/16 14:42:16;;;;;;;0.15;0.00;;;23.70;74.60;;;;;;4926514;29;20479;-85
2023/09/16 14:44:42;;;;;;;0.00;0.00;;;23.80;74.30;;;;;;4936017;29;20034;-80
2023/09/16 14:47:08;;;;;;;0.03;0.03;;;23.80;74.90;;;;;;4933888;29;20118;-78
2023/09/16 14:49:34;;;;;;;0.00;0.00;;;23.70;74.20;;;;;;4931585;29;20111;-79
2023/09/16 14:51:59;;;;;;;0.00;0.00;;;23.70;73.90;;;;;;4932978;29;20033;-78
2023/09/16 14:54:27;;;;;;;0.00;0.00;;;23.60;74.00;;;;;;4931125;29;20559;-79
2023/09/16 14:56:53;;;;;;;0.00;0.00;;;23.60;74.60;;;;;;4919908;29;20032;-78
2023/09/16 14:59:19;;;;;;;0.00;0.00;;;23.60;75.20;;;;;;4919458;29;20059;-78
2023/09/16 15:01:45;;;;;;;0.00;0.00;;;23.70;74.80;;;;;;4915600;29;20515;-80
2023/09/16 15:04:11;;;;;;;0.00;0.00;;;23.60;74.90;;;;;;4931914;29;20039;-81
2023/09/16 15:06:36;;;;;;;0.00;0.00;;;23.60;74.50;;;;;;4933696;29;20027;-78
2023/09/16 15:09:02;;;;;;;0.10;0.00;;;23.60;74.40;;;;;;4935267;29;20482;-81
2023/09/16 15:11:29;;;;;;;0.00;0.00;;;23.60;74.60;;;;;;4939878;29;20498;-84
2023/09/16 15:13:55;;;;;;;0.00;0.00;;;23.50;74.70;;;;;;4940253;29;20032;-81
2023/09/16 15:16:26;;;;;;;0.00;0.00;;;23.60;75.20;;;;;;4925689;29;20143;-80
2023/09/16 15:18:53;;;;;;;0.00;0.00;;;23.60;75.10;;;;;;4918044;29;20032;-82
2023/09/16 15:21:20;;;;;;;0.00;0.00;;;23.70;74.60;;;;;;4933303;29;20829;-79
2023/09/16 15:23:46;;;;;;;0.00;0.00;;;23.80;74.20;;;;;;4934702;29;20019;-78
2023/09/16 15:26:12;;;;;;;0.00;0.00;;;23.80;74.20;;;;;;4939009;29;20028;-79
2023/09/16 15:28:39;;;;;;;0.00;0.00;;;23.90;74.10;;;;;;4936489;29;20063;-80
2023/09/16 15:31:04;;;;;;;0.00;0.00;;;24.00;73.80;;;;;;4949461;29;20487;-80
2023/09/16 15:33:30;;;;;;;0.00;0.00;;;24.10;73.30;;;;;;4945693;29;20049;-80
2023/09/16 15:35:56;;;;;;;0.00;0.00;;;24.10;73.10;;;;;;4943908;29;20061;-80
2023/09/16 15:38:21;;;;;;;0.00;0.00;;;24.10;73.20;;;;;;4949383;29;20027;-80
2023/09/16 15:40:47;;;;;;;0.00;0.00;;;24.10;73.30;;;;;;4939856;29;20032;-80
2023/09/16 15:43:13;;;;;;;0.00;0.00;;;24.20;73.40;;;;;;4947904;29;20024;-80
2023/09/16 15:45:38;;;;;;;0.00;0.00;;;24.30;73.10;;;;;;4941868;29;20032;-79
2023/09/16 15:48:05;;;;;;;0.00;0.00;;;24.30;72.80;;;;;;4937686;29;20035;-79
2023/09/16 15:50:48;;;;;;;0.00;0.00;;;24.30;72.70;;;;;;4935367;29;20031;-79
2023/09/16 15:53:15;;;;;;;0.00;0.00;;;24.30;72.40;;;;;;4936992;29;20063;-86
2023/09/16 15:55:40;;;;;;;0.00;0.00;;;24.30;71.70;;;;;;4922071;29;20062;-80
2023/09/16 15:58:06;;;;;;;0.00;0.00;;;24.20;71.80;;;;;;4938418;29;20486;-80
2023/09/16 16:00:35;;;;;;;0.00;0.00;;;24.10;72.10;;;;;;4938429;29;20031;-80
2023/09/16 16:03:01;;;;;;;0.00;0.00;;;24.00;71.50;;;;;;4934659;29;20027;-80
2023/09/16 16:05:27;;;;;;;0.00;0.00;;;23.90;70.00;;;;;;4938308;29;20032;-81
2023/09/16 16:07:54;;;;;;;0.28;0.05;;;23.80;69.60;;;;;;4939070;29;20659;-81
2023/09/16 16:10:22;;;;;;;0.00;0.00;;;23.80;70.30;;;;;;4921286;29;20100;-80
2023/09/16 16:12:47;;;;;;;0.00;0.00;;;23.80;70.90;;;;;;4921060;29;20078;-80
2023/09/16 16:15:13;;;;;;;0.00;0.00;;;23.70;71.10;;;;;;4937135;29;20115;-82
2023/09/16 16:17:39;;;;;;;0.00;0.00;;;23.60;71.70;;;;;;4937562;29;20032;-78
2023/09/16 16:20:05;;;;;;;0.00;0.00;;;23.60;71.40;;;;;;4922075;29;20410;-77
2023/09/16 16:22:31;;;;;;;0.00;0.00;;;23.60;71.50;;;;;;4939356;29;20039;-77
2023/09/16 16:24:59;;;;;;;0.00;0.00;;;23.70;71.30;;;;;;4937373;29;20039;-78
2023/09/16 16:27:25;;;;;;;0.00;0.00;;;23.90;71.10;;;;;;4935992;29;20020;-77
2023/09/16 16:29:51;;;;;;;0.00;0.00;;;23.90;70.30;;;;;;4936466;29;20042;-77
2023/09/16 16:32:19;;;;;;;0.10;0.10;;;23.90;70.30;;;;;;4940185;29;20031;-77
2023/09/16 16:34:46;;;;;;;0.00;0.00;;;23.90;70.10;;;;;;4935967;29;20028;-77
2023/09/16 16:37:12;;;;;;;0.00;0.00;;;23.90;69.90;;;;;;4921405;29;20023;-77
2023/09/16 16:39:38;;;;;;;0.00;0.00;;;23.80;70.50;;;;;;4938376;29;20028;-77
2023/09/16 16:42:04;;;;;;;0.00;0.00;;;23.70;70.50;;;;;;4932995;29;20482;-77
2023/09/16 16:44:33;;;;;;;0.00;0.00;;;23.60;70.80;;;;;;4939487;29;20079;-77
2023/09/16 16:46:58;;;;;;;0.10;0.00;;;23.60;71.40;;;;;;4930113;29;20016;-77
2023/09/16 16:49:24;;;;;;;0.00;0.00;;;23.50;71.90;;;;;;4938016;29;20038;-77
2023/09/16 16:51:49;;;;;;;0.00;0.00;;;23.50;71.50;;;;;;4918631;29;20323;-77
2023/09/16 16:54:15;;;;;;;0.00;0.00;;;23.30;71.90;;;;;;4936244;29;20044;-79
2023/09/16 16:56:41;;;;;;;0.00;0.00;;;23.30;71.70;;;;;;4938023;29;20052;-77
2023/09/16 16:59:06;;;;;;;0.00;0.00;;;23.20;72.10;;;;;;4922348;29;20032;-77
2023/09/16 17:01:33;;;;;;;0.00;0.00;;;23.20;73.00;;;;;;4918228;29;20127;-77
2023/09/16 17:03:59;;;;;;;0.10;0.10;;;23.10;73.20;;;;;;4919310;29;20036;-77
2023/09/16 17:06:24;;;;;;;0.00;0.00;;;23.00;73.40;;;;;;4938407;29;20039;-77
2023/09/16 17:08:50;;;;;;;0.00;0.00;;;23.00;73.70;;;;;;4935845;29;20546;-77
2023/09/16 17:11:15;;;;;;;0.00;0.00;;;23.00;73.90;;;;;;4953338;29;20165;-77
2023/09/16 17:13:42;;;;;;;0.13;0.10;;;23.00;74.30;;;;;;4937810;29;20032;-78
2023/09/16 17:16:08;;;;;;;0.00;0.00;;;23.00;74.10;;;;;;4935159;29;20023;-77